Time;durP1;ratioP1;P1;durP2;ratioP2;P2;SDS_P1;SDS_P2;PMS_P1;PMS_P2;Temp;Humidity;BMP_temperature;BMP_pressure;BME280_temperature;BME280_humidity;BME280_pressure;Samples;Min_cycle;Max_cycle;Signal;HPM_P1;HPM_P2
2021/06/26 00:02:10;;;;;;;18.93;15.43;;;16.20;99.90;;;;;;5031568;28;20171;-66
2021/06/26 00:04:38;;;;;;;17.83;15.93;;;16.20;99.90;;;;;;5012520;28;20188;-65
2021/06/26 00:07:03;;;;;;;21.50;16.00;;;16.10;99.90;;;;;;4994850;28;20200;-64
2021/06/26 00:09:29;;;;;;;17.67;15.77;;;16.00;99.90;;;;;;5030825;28;20207;-66
2021/06/26 00:11:55;;;;;;;16.83;15.23;;;15.90;99.90;;;;;;5034721;28;20187;-67
2021/06/26 00:14:20;;;;;;;20.07;16.33;;;15.80;99.90;;;;;;5019715;28;20207;-66
2021/06/26 00:16:46;;;;;;;17.50;15.43;;;15.70;99.90;;;;;;5015622;28;20226;-65
2021/06/26 00:19:12;;;;;;;17.30;15.20;;;15.60;99.90;;;;;;5029093;28;20203;-65
2021/06/26 00:21:37;;;;;;;16.67;14.87;;;15.60;99.90;;;;;;5035433;28;20649;-66
2021/06/26 00:24:04;;;;;;;18.40;15.70;;;15.50;99.90;;;;;;5023079;28;20176;-66
2021/06/26 00:26:29;;;;;;;18.00;15.27;;;15.40;99.90;;;;;;5016411;28;20274;-66
2021/06/26 00:28:55;;;;;;;18.30;16.27;;;15.50;99.90;;;;;;5015397;28;20697;-66
2021/06/26 00:31:21;;;;;;;23.20;17.53;;;15.60;99.90;;;;;;5017057;28;20638;-66
2021/06/26 00:33:46;;;;;;;17.47;15.20;;;15.50;99.90;;;;;;5033873;28;20234;-65
2021/06/26 00:36:12;;;;;;;17.50;15.67;;;15.40;99.90;;;;;;5034704;28;20171;-64
2021/06/26 00:38:39;;;;;;;21.03;16.20;;;15.40;99.90;;;;;;5015152;28;20196;-66
2021/06/26 00:41:05;;;;;;;21.17;16.93;;;15.30;99.90;;;;;;5015263;28;20247;-65
2021/06/26 00:43:31;;;;;;;18.87;16.97;;;15.30;99.90;;;;;;5033391;28;20286;-64
2021/06/26 00:46:00;;;;;;;23.53;17.63;;;15.30;99.90;;;;;;5034769;28;20251;-64
2021/06/26 00:48:26;;;;;;;20.20;15.87;;;15.30;99.90;;;;;;5017256;28;20215;-66
2021/06/26 00:50:53;;;;;;;19.70;16.27;;;15.40;99.90;;;;;;5015239;28;20234;-66
2021/06/26 00:53:19;;;;;;;22.70;18.13;;;15.30;99.90;;;;;;5030305;28;20176;-66
2021/06/26 00:55:52;;;;;;;20.80;17.77;;;15.30;99.90;;;;;;5034595;28;20178;-65
2021/06/26 00:58:19;;;;;;;23.13;18.30;;;15.20;99.90;;;;;;5019377;28;20200;-67
2021/06/26 01:00:45;;;;;;;21.33;17.37;;;15.20;99.90;;;;;;5014836;28;20176;-65
2021/06/26 01:03:11;;;;;;;20.20;17.40;;;15.20;99.90;;;;;;5028370;28;20681;-65
2021/06/26 01:05:37;;;;;;;22.57;18.20;;;15.20;99.90;;;;;;5034514;28;20187;-66
2021/06/26 01:08:03;;;;;;;22.97;18.00;;;15.20;99.90;;;;;;5022084;28;20540;-65
2021/06/26 01:10:29;;;;;;;21.87;17.60;;;15.10;99.90;;;;;;5014799;28;20172;-64
2021/06/26 01:12:57;;;;;;;22.67;18.13;;;15.10;99.90;;;;;;5024096;28;20179;-66
2021/06/26 01:15:22;;;;;;;21.40;18.20;;;15.00;99.90;;;;;;5034153;28;20202;-65
2021/06/26 01:17:48;;;;;;;20.67;18.10;;;15.10;99.90;;;;;;5024783;28;20200;-64
2021/06/26 01:20:14;;;;;;;19.17;16.57;;;15.10;99.90;;;;;;5014692;28;20164;-65
2021/06/26 01:22:45;;;;;;;22.90;17.93;;;15.00;99.90;;;;;;5020149;28;20184;-65
2021/06/26 01:25:16;;;;;;;22.03;16.63;;;15.00;99.90;;;;;;5034408;28;20178;-66
2021/06/26 01:27:43;;;;;;;24.20;17.27;;;15.00;99.90;;;;;;5020351;28;20211;-65
2021/06/26 01:30:11;;;;;;;22.47;18.33;;;15.00;99.90;;;;;;5014295;28;20536;-65
2021/06/26 01:32:37;;;;;;;20.47;17.60;;;15.00;99.90;;;;;;5026145;28;20179;-66
2021/06/26 01:35:04;;;;;;;23.07;17.23;;;15.00;99.90;;;;;;5034037;28;20281;-66
2021/06/26 01:37:30;;;;;;;20.33;16.10;;;15.00;99.90;;;;;;5022922;28;20287;-65
2021/06/26 01:39:56;;;;;;;22.33;18.03;;;14.90;99.90;;;;;;5014203;28;20251;-65
2021/06/26 01:42:21;;;;;;;23.03;18.47;;;14.90;99.90;;;;;;5022582;28;20668;-66
2021/06/26 01:44:47;;;;;;;24.30;18.90;;;14.80;99.90;;;;;;5033848;28;20176;-66
2021/06/26 01:47:13;;;;;;;22.77;18.70;;;14.80;99.90;;;;;;5026422;28;20196;-65
2021/06/26 01:49:39;;;;;;;23.47;18.93;;;14.80;99.90;;;;;;5013716;28;20242;-65
2021/06/26 01:52:08;;;;;;;23.10;19.13;;;14.80;99.90;;;;;;5019141;28;20187;-65
2021/06/26 01:54:34;;;;;;;24.23;20.33;;;14.70;99.90;;;;;;5033723;28;20345;-66
2021/06/26 01:56:59;;;;;;;24.10;19.20;;;14.80;99.90;;;;;;5029004;28;20279;-66
2021/06/26 01:59:25;;;;;;;26.07;19.53;;;14.90;99.90;;;;;;5014775;28;20184;-66
2021/06/26 02:01:51;;;;;;;25.90;19.17;;;14.90;99.90;;;;;;5014894;28;20315;-65
2021/06/26 02:04:16;;;;;;;23.13;19.10;;;15.00;99.90;;;;;;5013695;28;20176;-66
2021/06/26 02:06:42;;;;;;;25.10;19.10;;;15.00;99.90;;;;;;5026168;28;20176;-66
2021/06/26 02:09:07;;;;;;;25.67;18.53;;;14.90;99.90;;;;;;5033414;28;20583;-66
2021/06/26 02:11:34;;;;;;;24.47;17.90;;;14.80;99.90;;;;;;5020883;28;20199;-65
2021/06/26 02:14:00;;;;;;;22.07;18.57;;;14.70;99.90;;;;;;5013639;28;20350;-66
2021/06/26 02:16:26;;;;;;;24.57;19.77;;;14.70;99.90;;;;;;5022675;28;20258;-66
2021/06/26 02:18:53;;;;;;;26.27;19.80;;;14.70;99.90;;;;;;5033068;28;20546;-66
2021/06/26 02:21:19;;;;;;;23.30;19.00;;;14.60;99.90;;;;;;5031451;28;20181;-66
2021/06/26 02:23:45;;;;;;;26.23;19.37;;;14.50;99.90;;;;;;5032998;28;20171;-66
2021/06/26 02:26:10;;;;;;;28.37;19.53;;;14.50;99.90;;;;;;5019834;28;20262;-66
2021/06/26 02:28:36;;;;;;;22.13;17.57;;;14.50;99.90;;;;;;5012250;28;20618;-64
2021/06/26 02:31:02;;;;;;;27.80;18.57;;;14.40;99.90;;;;;;5023722;28;20226;-66
2021/06/26 02:33:27;;;;;;;25.30;19.10;;;14.40;99.90;;;;;;5032605;28;20625;-65
2021/06/26 02:35:53;;;;;;;26.50;19.67;;;14.40;99.90;;;;;;5031215;28;20233;-66
2021/06/26 02:38:19;;;;;;;24.87;19.07;;;14.40;99.90;;;;;;5032812;28;20233;-66
2021/06/26 02:40:44;;;;;;;30.60;20.53;;;14.50;99.90;;;;;;5024997;28;20230;-66
2021/06/26 02:43:10;;;;;;;30.20;20.43;;;14.60;99.90;;;;;;5013096;28;20527;-66
2021/06/26 02:45:35;;;;;;;25.13;19.27;;;14.70;99.90;;;;;;5018213;28;20183;-66
2021/06/26 02:48:01;;;;;;;28.40;19.67;;;14.60;99.90;;;;;;5032445;28;20199;-66
2021/06/26 02:50:27;;;;;;;33.17;20.67;;;14.60;99.90;;;;;;5028501;28;20247;-66
2021/06/26 02:52:52;;;;;;;27.47;20.43;;;14.60;99.90;;;;;;5012957;28;20176;-66
2021/06/26 02:55:18;;;;;;;31.73;22.20;;;14.60;99.90;;;;;;5014263;28;20689;-66
2021/06/26 02:57:44;;;;;;;31.37;21.50;;;14.60;99.90;;;;;;5032221;28;20214;-66
2021/06/26 03:00:11;;;;;;;33.00;21.13;;;14.60;99.90;;;;;;5031962;28;20199;-66
2021/06/26 03:02:39;;;;;;;30.90;21.07;;;14.60;99.90;;;;;;5012577;28;20260;-65
2021/06/26 03:05:05;;;;;;;27.93;21.33;;;14.50;99.90;;;;;;5012694;28;20625;-65
2021/06/26 03:07:31;;;;;;;33.73;22.00;;;14.60;99.90;;;;;;5030573;28;20238;-66
2021/06/26 03:09:57;;;;;;;28.10;19.83;;;14.50;99.90;;;;;;5032537;28;20222;-66
2021/06/26 03:12:23;;;;;;;31.70;19.80;;;14.40;99.90;;;;;;5014281;28;20190;-65
2021/06/26 03:14:48;;;;;;;29.53;22.00;;;14.20;99.90;;;;;;5012524;28;20649;-66
2021/06/26 03:17:14;;;;;;;34.50;21.73;;;14.20;99.90;;;;;;5026766;28;20200;-66
2021/06/26 03:19:40;;;;;;;28.73;20.57;;;14.10;99.90;;;;;;5031967;28;20187;-66
2021/06/26 03:22:06;;;;;;;30.57;21.13;;;14.00;99.90;;;;;;5023993;28;20180;-66
2021/06/26 03:24:31;;;;;;;34.13;21.73;;;13.90;99.90;;;;;;5031880;28;20233;-66
2021/06/26 03:26:57;;;;;;;36.27;23.20;;;13.90;99.90;;;;;;5014778;28;20188;-65
2021/06/26 03:29:23;;;;;;;34.03;23.17;;;13.90;99.90;;;;;;5012037;28;20180;-66
2021/06/26 03:31:49;;;;;;;36.50;23.27;;;13.90;99.90;;;;;;5026952;28;20198;-67
2021/06/26 03:34:15;;;;;;;36.27;23.03;;;14.00;99.90;;;;;;5031845;28;20700;-66
2021/06/26 03:36:41;;;;;;;35.17;23.87;;;14.00;99.90;;;;;;5018237;28;20642;-66
2021/06/26 03:39:06;;;;;;;36.93;24.63;;;14.00;99.90;;;;;;5011948;28;20207;-66
2021/06/26 03:41:32;;;;;;;35.93;23.50;;;14.20;99.90;;;;;;5022224;28;20241;-67
2021/06/26 03:43:59;;;;;;;34.50;23.63;;;14.20;99.90;;;;;;5032090;28;20175;-66
2021/06/26 03:46:25;;;;;;;34.17;24.67;;;14.40;99.90;;;;;;5021667;28;20172;-66
2021/06/26 03:48:51;;;;;;;35.80;22.40;;;14.50;99.90;;;;;;5011875;28;20286;-67
2021/06/26 03:51:17;;;;;;;34.73;23.20;;;14.50;99.90;;;;;;5019428;28;20613;-66
2021/06/26 03:53:46;;;;;;;39.27;23.40;;;14.50;99.90;;;;;;5031590;28;20318;-66
2021/06/26 03:56:11;;;;;;;30.37;22.43;;;14.60;99.90;;;;;;5024803;28;20772;-66
2021/06/26 03:58:37;;;;;;;26.17;20.97;;;14.60;99.90;;;;;;5023872;28;20231;-67
2021/06/26 04:01:03;;;;;;;29.07;21.80;;;14.60;99.90;;;;;;5026680;28;20176;-66
2021/06/26 04:03:28;;;;;;;24.13;18.87;;;14.70;99.90;;;;;;5011724;28;20172;-66
2021/06/26 04:05:54;;;;;;;27.77;20.00;;;14.70;99.90;;;;;;5014123;28;20176;-65
2021/06/26 04:08:20;;;;;;;24.40;18.70;;;14.80;99.90;;;;;;5031582;28;20187;-67
2021/06/26 04:10:45;;;;;;;26.70;19.67;;;14.80;99.90;;;;;;5030474;28;20178;-66
2021/06/26 04:13:11;;;;;;;29.50;21.27;;;14.90;99.90;;;;;;5010967;28;20568;-66
2021/06/26 04:15:37;;;;;;;26.67;20.53;;;14.90;99.90;;;;;;5011593;28;20580;-67
2021/06/26 04:18:03;;;;;;;29.83;19.63;;;15.00;99.90;;;;;;5030131;28;20199;-66
2021/06/26 04:20:29;;;;;;;24.83;19.77;;;15.00;99.90;;;;;;5031413;28;20168;-66
2021/06/26 04:22:55;;;;;;;25.50;19.50;;;15.10;99.90;;;;;;5014100;28;20198;-66
2021/06/26 04:25:21;;;;;;;31.33;20.50;;;15.30;99.90;;;;;;5020995;28;20175;-66
2021/06/26 04:27:46;;;;;;;27.97;20.63;;;15.40;99.90;;;;;;5030321;28;20668;-66
2021/06/26 04:30:14;;;;;;;24.90;20.30;;;15.60;99.90;;;;;;5022994;28;20234;-66
2021/06/26 04:32:40;;;;;;;28.23;21.23;;;15.70;99.90;;;;;;5011596;28;20188;-66
2021/06/26 04:35:09;;;;;;;28.53;20.93;;;15.90;99.90;;;;;;5017749;28;20286;-67
2021/06/26 04:37:35;;;;;;;29.07;21.23;;;16.10;99.90;;;;;;5030702;28;20191;-67
2021/06/26 04:40:02;;;;;;;24.83;20.67;;;16.40;99.90;;;;;;5024852;28;20169;-66
2021/06/26 04:42:28;;;;;;;24.33;21.57;;;16.60;99.90;;;;;;5011464;28;20187;-66
2021/06/26 04:44:53;;;;;;;23.63;20.87;;;17.00;99.90;;;;;;5014481;28;20550;-67
2021/06/26 04:47:19;;;;;;;21.23;18.10;;;17.30;99.90;;;;;;5030920;28;20583;-65
2021/06/26 04:49:45;;;;;;;19.40;17.30;;;17.50;99.90;;;;;;5029260;28;20192;-67
2021/06/26 04:52:11;;;;;;;24.47;16.77;;;17.70;99.90;;;;;;5012836;28;20262;-67
2021/06/26 04:54:37;;;;;;;18.40;16.30;;;17.90;99.90;;;;;;5015080;28;20295;-67
2021/06/26 04:57:03;;;;;;;19.00;16.07;;;18.00;99.90;;;;;;5014978;28;20172;-66
2021/06/26 04:59:29;;;;;;;18.67;16.63;;;18.00;99.90;;;;;;5014865;28;20527;-66
2021/06/26 05:01:54;;;;;;;20.03;17.50;;;17.80;99.90;;;;;;5021205;28;20168;-66
2021/06/26 05:04:21;;;;;;;22.43;16.77;;;17.60;99.90;;;;;;5014854;28;20179;-66
2021/06/26 05:06:46;;;;;;;19.53;17.43;;;17.40;99.90;;;;;;5030357;28;20668;-67
2021/06/26 05:09:12;;;;;;;21.50;18.00;;;17.30;99.90;;;;;;5034552;28;20234;-66
2021/06/26 05:11:37;;;;;;;20.23;18.07;;;17.30;99.90;;;;;;5018644;28;20310;-66
2021/06/26 05:14:03;;;;;;;22.40;18.33;;;17.20;99.90;;;;;;5014790;28;20591;-66
2021/06/26 05:16:29;;;;;;;19.63;17.27;;;16.90;99.90;;;;;;5027040;28;20175;-67
2021/06/26 05:18:55;;;;;;;18.87;16.67;;;17.00;99.90;;;;;;5034331;28;20677;-67
2021/06/26 05:21:21;;;;;;;19.23;17.17;;;16.90;99.90;;;;;;5023230;28;20656;-66
2021/06/26 05:23:46;;;;;;;20.07;17.63;;;16.90;99.90;;;;;;5014299;28;20243;-66
2021/06/26 05:26:12;;;;;;;20.97;18.73;;;16.70;99.90;;;;;;5023204;28;20171;-66
2021/06/26 05:28:38;;;;;;;19.57;16.97;;;16.70;99.90;;;;;;5034004;28;20195;-67
2021/06/26 05:31:04;;;;;;;20.87;16.97;;;16.60;99.90;;;;;;5032526;28;20175;-66
2021/06/26 05:33:30;;;;;;;23.77;17.83;;;16.60;99.90;;;;;;5033853;28;20179;-67
2021/06/26 05:35:56;;;;;;;23.53;18.23;;;16.70;99.90;;;;;;5028154;28;20182;-67
2021/06/26 05:38:21;;;;;;;19.13;17.23;;;16.80;99.90;;;;;;5014038;28;20196;-66
2021/06/26 05:40:47;;;;;;;17.93;16.03;;;17.10;99.90;;;;;;5017510;28;20600;-66
2021/06/26 05:43:12;;;;;;;18.03;16.13;;;17.30;99.90;;;;;;5034036;28;20536;-65
2021/06/26 05:45:38;;;;;;;16.77;15.03;;;17.50;99.90;;;;;;5031489;28;20211;-65
2021/06/26 05:48:04;;;;;;;16.33;14.73;;;17.80;99.90;;;;;;5013892;28;20196;-66
2021/06/26 05:50:30;;;;;;;16.77;14.73;;;18.10;99.90;;;;;;5013925;28;20661;-67
2021/06/26 05:52:56;;;;;;;17.67;15.93;;;18.50;99.90;;;;;;5033621;28;20214;-67
2021/06/26 05:55:29;;;;;;;15.97;14.27;;;18.90;99.90;;;;;;5023716;28;20200;-66
2021/06/26 05:57:55;;;;;;;16.90;15.33;;;19.30;99.90;;;;;;5031041;28;20699;-66
2021/06/26 06:00:22;;;;;;;17.20;15.20;;;19.90;99.90;;;;;;5033440;28;20176;-66
2021/06/26 06:02:49;;;;;;;16.43;14.93;;;20.30;99.90;;;;;;5014368;28;20558;-66
2021/06/26 06:05:15;;;;;;;15.33;13.93;;;20.40;99.90;;;;;;5013240;28;20181;-67
2021/06/26 06:07:42;;;;;;;15.80;14.30;;;20.40;99.90;;;;;;5012949;28;20392;-67
2021/06/26 06:10:10;;;;;;;14.93;13.43;;;20.70;99.90;;;;;;5013806;28;20173;-66
2021/06/26 06:12:40;;;;;;;13.82;12.63;;;21.10;99.90;;;;;;5025606;28;20179;-67
2021/06/26 06:15:08;;;;;;;15.57;13.80;;;21.30;99.90;;;;;;5031835;28;20203;-66
2021/06/26 06:17:34;;;;;;;14.63;13.13;;;21.60;99.90;;;;;;5028506;28;20195;-67
2021/06/26 06:20:03;;;;;;;14.20;12.82;;;21.70;99.90;;;;;;5033146;28;20168;-68
2021/06/26 06:22:30;;;;;;;14.60;12.88;;;22.00;99.90;;;;;;5031180;28;20254;-67
2021/06/26 06:24:55;;;;;;;15.15;13.45;;;22.10;99.90;;;;;;5023544;28;20176;-67
2021/06/26 06:27:21;;;;;;;14.18;12.77;;;22.00;99.90;;;;;;5012813;28;20215;-67
2021/06/26 06:29:47;;;;;;;13.30;12.02;;;22.30;99.90;;;;;;5019972;28;20183;-66
2021/06/26 06:32:13;;;;;;;13.60;12.27;;;22.60;99.90;;;;;;5032844;28;20695;-67
2021/06/26 06:34:39;;;;;;;14.48;13.07;;;22.90;99.90;;;;;;5025107;28;20216;-67
2021/06/26 06:37:04;;;;;;;14.75;13.35;;;23.20;99.90;;;;;;5012619;28;20165;-66
2021/06/26 06:39:30;;;;;;;14.43;12.95;;;23.00;99.90;;;;;;5016368;28;20245;-66
2021/06/26 06:41:56;;;;;;;15.52;14.02;;;22.90;99.90;;;;;;5032730;28;20179;-66
2021/06/26 06:44:22;;;;;;;15.18;13.48;;;22.70;99.90;;;;;;5030824;28;20179;-66
2021/06/26 06:46:47;;;;;;;15.93;14.32;;;22.60;99.90;;;;;;5032308;28;20172;-67
2021/06/26 06:49:13;;;;;;;16.33;14.63;;;22.60;99.90;;;;;;5022627;28;20273;-66
2021/06/26 06:51:38;;;;;;;16.40;14.40;;;22.50;99.90;;;;;;5012488;28;20310;-65
2021/06/26 06:54:05;;;;;;;16.23;14.35;;;22.70;99.90;;;;;;5020310;28;20345;-67
2021/06/26 06:56:30;;;;;;;15.77;14.10;;;22.80;99.90;;;;;;5031962;28;20190;-65
2021/06/26 06:58:56;;;;;;;16.13;14.43;;;23.00;99.90;;;;;;5030512;28;20402;-66
2021/06/26 07:01:22;;;;;;;16.00;14.43;;;23.10;99.90;;;;;;5032310;28;20186;-66
2021/06/26 07:03:47;;;;;;;17.52;15.23;;;23.20;99.90;;;;;;5027677;28;20650;-66
2021/06/26 07:06:13;;;;;;;17.85;16.00;;;23.30;99.90;;;;;;5012327;28;20179;-66
2021/06/26 07:08:38;;;;;;;15.45;13.93;;;23.50;99.90;;;;;;5014362;28;20591;-67
2021/06/26 07:11:04;;;;;;;16.27;14.55;;;23.70;99.90;;;;;;5032187;28;20179;-67
2021/06/26 07:13:30;;;;;;;19.17;17.25;;;23.90;99.90;;;;;;5030995;28;20175;-66
2021/06/26 07:15:55;;;;;;;19.20;16.23;;;24.10;99.90;;;;;;5011999;28;20171;-66
2021/06/26 07:18:21;;;;;;;18.38;15.77;;;24.30;99.90;;;;;;5012465;28;20601;-66
2021/06/26 07:20:47;;;;;;;20.05;16.58;;;24.50;99.90;;;;;;5030871;28;20188;-67
2021/06/26 07:23:12;;;;;;;17.67;15.88;;;24.80;99.90;;;;;;5032012;28;20174;-67
2021/06/26 07:25:38;;;;;;;20.10;16.98;;;24.90;99.90;;;;;;5014187;28;20188;-66
2021/06/26 07:28:04;;;;;;;20.17;16.52;;;25.20;99.90;;;;;;5012086;28;20196;-66
2021/06/26 07:30:31;;;;;;;17.35;15.52;;;25.50;99.90;;;;;;5027420;28;20704;-66
2021/06/26 07:32:56;;;;;;;16.83;14.73;;;25.80;99.90;;;;;;5031799;28;20262;-67
2021/06/26 07:35:22;;;;;;;20.58;17.33;;;25.70;99.90;;;;;;5017571;28;20268;-66
2021/06/26 07:37:48;;;;;;;20.42;18.02;;;25.60;99.90;;;;;;5011437;28;20191;-66
2021/06/26 07:40:14;;;;;;;18.10;16.30;;;25.50;99.90;;;;;;5022787;28;20191;-66
2021/06/26 07:42:40;;;;;;;19.73;16.95;;;25.80;99.90;;;;;;5030281;28;20175;-66
2021/06/26 07:45:06;;;;;;;16.30;14.20;;;25.70;99.90;;;;;;5021378;28;20547;-67
2021/06/26 07:47:33;;;;;;;17.83;14.30;;;25.90;99.90;;;;;;5011276;28;20199;-66
2021/06/26 07:49:59;;;;;;;17.52;15.27;;;26.00;99.90;;;;;;5026155;28;20199;-67
2021/06/26 07:52:25;;;;;;;18.52;16.55;;;26.30;99.90;;;;;;5031859;28;20176;-66
2021/06/26 07:54:51;;;;;;;19.02;16.83;;;26.40;99.90;;;;;;5018784;28;20210;-66
2021/06/26 07:57:16;;;;;;;15.70;14.10;;;26.60;99.90;;;;;;5011426;28;20188;-66
2021/06/26 07:59:42;;;;;;;21.50;16.70;;;27.00;99.90;;;;;;5021198;28;20179;-66
2021/06/26 08:02:07;;;;;;;18.30;16.40;;;26.80;99.90;;;;;;5031706;28;20163;-67
2021/06/26 08:04:33;;;;;;;18.95;16.00;;;26.90;99.90;;;;;;5021916;28;20184;-67
2021/06/26 08:06:59;;;;;;;18.27;16.40;;;26.50;99.90;;;;;;5011632;28;20638;-66
2021/06/26 08:09:24;;;;;;;19.45;17.25;;;26.40;99.90;;;;;;5018940;28;20542;-66
2021/06/26 08:11:50;;;;;;;20.85;16.73;;;26.50;99.90;;;;;;5031395;28;20170;-67
2021/06/26 08:14:15;;;;;;;17.85;15.68;;;26.80;99.90;;;;;;5025865;28;20196;-67
2021/06/26 08:16:41;;;;;;;20.27;16.77;;;27.30;99.90;;;;;;5011953;28;20176;-66
2021/06/26 08:19:07;;;;;;;19.20;16.90;;;27.40;99.90;;;;;;5015599;28;20199;-66
2021/06/26 08:21:32;;;;;;;20.95;16.23;;;27.80;99.90;;;;;;5031199;28;20179;-66
2021/06/26 08:23:58;;;;;;;18.27;16.35;;;28.20;99.90;;;;;;5020624;28;20188;-67
2021/06/26 08:26:24;;;;;;;18.85;16.00;;;28.40;99.90;;;;;;5010274;28;20184;-67
2021/06/26 08:28:50;;;;;;;18.77;16.20;;;28.60;99.90;;;;;;5024101;28;20200;-66
2021/06/26 08:31:16;;;;;;;16.83;15.02;;;28.90;99.90;;;;;;5034503;28;20253;-66
2021/06/26 08:33:41;;;;;;;17.45;15.57;;;29.00;99.90;;;;;;5031779;28;20270;-66
2021/06/26 08:36:07;;;;;;;16.90;15.10;;;29.20;99.90;;;;;;5034142;28;20634;-66
2021/06/26 08:38:33;;;;;;;18.13;16.10;;;29.50;99.90;;;;;;5028857;28;20211;-66
2021/06/26 08:40:59;;;;;;;19.75;16.80;;;29.70;99.90;;;;;;5015487;28;20176;-66
2021/06/26 08:43:27;;;;;;;17.40;15.52;;;29.50;99.90;;;;;;5018124;28;20180;-66
2021/06/26 08:45:53;;;;;;;17.73;15.93;;;29.30;99.90;;;;;;5034838;28;20247;-67
2021/06/26 08:48:20;;;;;;;17.45;15.70;;;29.60;99.90;;;;;;5031026;28;20282;-66
2021/06/26 08:50:46;;;;;;;18.40;16.45;;;29.70;99.90;;;;;;5034825;28;20167;-66
2021/06/26 08:53:11;;;;;;;19.70;17.70;;;29.80;99.90;;;;;;5033735;28;20163;-67
2021/06/26 08:55:37;;;;;;;17.73;14.98;;;29.90;99.90;;;;;;5014578;28;20567;-66
2021/06/26 08:58:04;;;;;;;17.15;15.45;;;30.30;99.90;;;;;;5014675;28;20210;-66
2021/06/26 09:00:31;;;;;;;16.45;14.75;;;30.50;99.90;;;;;;5033840;28;20551;-66
2021/06/26 09:03:20;;;;;;;17.10;15.07;;;30.70;99.90;;;;;;5034780;28;20183;-67
2021/06/26 09:05:47;;;;;;;16.52;14.63;;;30.80;99.90;;;;;;4994902;28;20604;-67
2021/06/26 09:08:20;;;;;;;17.25;15.45;;;31.00;99.90;;;;;;4995440;28;20223;-66
2021/06/26 09:10:48;;;;;;;15.50;13.90;;;31.40;99.90;;;;;;5015527;28;20259;-67
2021/06/26 09:13:25;;;;;;;17.17;15.38;;;31.50;99.90;;;;;;5014842;28;20180;-67
2021/06/26 09:16:03;;;;;;;17.33;15.50;;;32.00;99.90;;;;;;4994706;28;20243;-66
2021/06/26 09:18:29;;;;;;;16.70;15.02;;;32.20;99.90;;;;;;4996178;28;20231;-66
2021/06/26 09:20:56;;;;;;;16.25;14.65;;;32.10;99.90;;;;;;5014920;28;20200;-67
2021/06/26 09:23:33;;;;;;;15.75;14.07;;;32.40;99.90;;;;;;5013092;28;20183;-67
2021/06/26 09:26:12;;;;;;;15.75;14.05;;;32.40;99.90;;;;;;4994731;28;20211;-67
2021/06/26 09:28:39;;;;;;;16.85;14.60;;;32.10;99.90;;;;;;5007329;28;20202;-66
2021/06/26 09:31:17;;;;;;;17.27;15.55;;;32.20;99.90;;;;;;5034234;28;20187;-66
2021/06/26 09:33:42;;;;;;;16.67;14.20;;;31.70;99.90;;;;;;5027276;28;20600;-66
2021/06/26 09:36:10;;;;;;;13.73;12.43;;;31.40;99.90;;;;;;5014496;28;20172;-66
2021/06/26 09:38:52;;;;;;;14.35;12.40;;;31.60;99.90;;;;;;5017557;28;20199;-66
2021/06/26 09:41:18;;;;;;;14.15;12.50;;;32.00;99.90;;;;;;5034066;28;20171;-66
2021/06/26 09:43:44;;;;;;;17.05;14.07;;;31.80;99.90;;;;;;5032255;28;20202;-66
2021/06/26 09:46:11;;;;;;;14.82;13.35;;;31.90;99.90;;;;;;5033557;28;20167;-65
2021/06/26 09:48:50;;;;;;;14.85;12.10;;;32.20;99.90;;;;;;5028583;28;20214;-66
2021/06/26 09:51:28;;;;;;;15.95;14.25;;;32.50;99.90;;;;;;5030726;28;20179;-66
2021/06/26 09:53:55;;;;;;;15.55;13.93;;;32.90;99.90;;;;;;5031937;28;20249;-67
2021/06/26 09:56:21;;;;;;;15.90;13.27;;;33.00;99.90;;;;;;5033277;28;20302;-66
2021/06/26 09:58:52;;;;;;;17.15;13.18;;;33.10;99.90;;;;;;5029138;28;20211;-67
2021/06/26 10:01:22;;;;;;;15.18;13.02;;;32.80;99.90;;;;;;5013762;28;20652;-66
2021/06/26 10:03:48;;;;;;;13.27;12.02;;;32.10;99.90;;;;;;5017535;28;20522;-66
2021/06/26 10:06:17;;;;;;;14.82;12.60;;;31.90;99.90;;;;;;5033383;28;20283;-67
2021/06/26 10:08:44;;;;;;;14.50;11.80;;;31.90;99.90;;;;;;5030591;28;20257;-66
2021/06/26 10:11:09;;;;;;;13.57;11.48;;;32.00;99.90;;;;;;5014007;28;20176;-66
2021/06/26 10:13:36;;;;;;;13.90;12.50;;;31.90;99.90;;;;;;5014438;28;20609;-67
2021/06/26 10:16:03;;;;;;;13.13;11.57;;;31.60;99.90;;;;;;5033312;28;20181;-67
2021/06/26 10:18:29;;;;;;;11.65;10.45;;;31.50;99.90;;;;;;5032783;28;20199;-65
2021/06/26 10:20:56;;;;;;;12.02;10.80;;;31.50;99.90;;;;;;5014029;28;20672;-66
2021/06/26 10:23:22;;;;;;;11.25;9.93;;;31.60;99.90;;;;;;5023844;28;20543;-67
2021/06/26 10:25:48;;;;;;;9.88;8.98;;;31.60;99.90;;;;;;5032977;28;20187;-66
2021/06/26 10:28:17;;;;;;;12.48;9.57;;;32.00;99.90;;;;;;5031688;28;20208;-66
2021/06/26 10:31:03;;;;;;;9.40;8.55;;;32.00;99.90;;;;;;5033131;28;20179;-66
2021/06/26 10:33:32;;;;;;;9.82;8.82;;;31.90;99.90;;;;;;5023514;28;20542;-67
2021/06/26 10:35:59;;;;;;;10.45;9.43;;;32.20;99.90;;;;;;5013186;28;20247;-66
2021/06/26 10:38:26;;;;;;;10.20;9.30;;;32.90;99.90;;;;;;5022439;28;20249;-67
2021/06/26 10:40:56;;;;;;;10.23;9.23;;;33.40;99.90;;;;;;5032791;28;20176;-67
2021/06/26 10:43:31;;;;;;;10.50;9.40;;;33.30;99.90;;;;;;5023834;28;20638;-66
2021/06/26 10:46:13;;;;;;;10.63;9.63;;;33.10;99.90;;;;;;5012530;28;20168;-66
2021/06/26 10:48:40;;;;;;;9.45;8.55;;;32.80;99.90;;;;;;5022122;28;20242;-66
2021/06/26 10:51:08;;;;;;;10.00;8.98;;;32.40;99.90;;;;;;5032700;28;20163;-66
2021/06/26 10:53:39;;;;;;;9.80;8.80;;;31.50;99.90;;;;;;5023403;28;20262;-66
2021/06/26 10:56:11;;;;;;;9.02;8.30;;;31.00;99.90;;;;;;5012932;28;20215;-66
2021/06/26 10:58:42;;;;;;;8.18;7.32;;;30.70;99.90;;;;;;5021198;28;20195;-67
2021/06/26 11:01:14;;;;;;;8.65;7.75;;;30.60;99.90;;;;;;5031417;28;20689;-66
2021/06/26 11:03:40;;;;;;;8.43;7.60;;;30.50;99.90;;;;;;5022256;28;20180;-65
2021/06/26 11:06:27;;;;;;;9.15;8.32;;;30.30;99.90;;;;;;5012642;28;20171;-66
2021/06/26 11:08:58;;;;;;;10.05;9.15;;;30.60;99.90;;;;;;5022757;28;20215;-66
2021/06/26 11:11:32;;;;;;;9.32;8.45;;;31.10;99.90;;;;;;5032314;28;20186;-66
2021/06/26 11:14:22;;;;;;;8.73;8.02;;;31.20;99.90;;;;;;5021867;28;20235;-66
2021/06/26 11:16:55;;;;;;;8.68;7.85;;;31.10;99.90;;;;;;5012776;28;20510;-67
2021/06/26 11:19:32;;;;;;;9.10;8.30;;;31.20;99.90;;;;;;5025456;28;20266;-67
2021/06/26 11:21:59;;;;;;;8.75;7.93;;;31.40;99.90;;;;;;5032314;28;20171;-67
2021/06/26 11:24:39;;;;;;;9.07;8.20;;;31.80;99.90;;;;;;5018919;28;20262;-66
2021/06/26 11:27:06;;;;;;;9.15;8.27;;;32.70;99.90;;;;;;5011772;28;20644;-66
2021/06/26 11:29:37;;;;;;;9.68;8.82;;;33.40;99.90;;;;;;5013275;28;20673;-67
2021/06/26 11:32:19;;;;;;;9.82;8.95;;;33.60;99.50;;;;;;5012435;28;20184;-66
2021/06/26 11:34:59;;;;;;;9.27;8.43;;;32.70;99.90;;;;;;5026604;28;20693;-66
2021/06/26 11:37:45;;;;;;;10.27;9.32;;;31.80;99.90;;;;;;5032091;28;20190;-66
2021/06/26 11:40:13;;;;;;;9.20;8.40;;;30.70;99.90;;;;;;5014780;28;20172;-65
2021/06/26 11:43:03;;;;;;;9.32;8.52;;;30.50;99.90;;;;;;5013414;28;20186;-67
2021/06/26 11:45:40;;;;;;;8.23;7.43;;;30.80;99.90;;;;;;5032057;28;20176;-66
2021/06/26 11:48:10;;;;;;;8.60;7.80;;;31.70;99.90;;;;;;5025518;28;20203;-66
2021/06/26 11:50:58;;;;;;;8.88;8.07;;;33.00;99.90;;;;;;5012236;28;20176;-66
2021/06/26 11:53:26;;;;;;;8.65;7.95;;;33.20;99.90;;;;;;5018374;28;20237;-67
2021/06/26 11:55:58;;;;;;;9.00;8.20;;;32.80;99.90;;;;;;5029538;28;20304;-66
2021/06/26 11:58:43;;;;;;;8.45;7.75;;;32.90;99.40;;;;;;5011782;28;20194;-66
2021/06/26 12:01:28;;;;;;;8.68;7.97;;;32.90;99.30;;;;;;5014246;28;20171;-65
2021/06/26 12:03:54;;;;;;;9.23;8.52;;;33.20;98.70;;;;;;5031925;28;20234;-66
2021/06/26 12:06:20;;;;;;;7.20;6.70;;;33.00;97.10;;;;;;5026941;28;20271;-66
2021/06/26 12:08:56;;;;;;;8.20;7.40;;;33.20;99.90;;;;;;5011693;28;20721;-66
2021/06/26 12:11:37;;;;;;;8.02;7.32;;;33.50;99.90;;;;;;5021491;28;20175;-67
2021/06/26 12:14:03;;;;;;;7.40;6.80;;;34.50;96.80;;;;;;5031460;28;20199;-66
2021/06/26 12:16:37;;;;;;;7.20;6.60;;;35.10;97.60;;;;;;5020690;28;20512;-66
2021/06/26 12:19:07;;;;;;;7.10;6.50;;;35.80;97.00;;;;;;5012512;28;20190;-67
2021/06/26 12:21:44;;;;;;;7.38;6.78;;;35.90;95.30;;;;;;5013471;28;20717;-66
2021/06/26 12:24:11;;;;;;;7.68;6.97;;;35.20;93.60;;;;;;5012071;28;20207;-66
2021/06/26 12:26:37;;;;;;;7.70;7.05;;;34.60;94.00;;;;;;5012788;28;20180;-66
2021/06/26 12:29:03;;;;;;;7.57;6.88;;;34.00;94.60;;;;;;5011930;28;20255;-67
2021/06/26 12:31:41;;;;;;;6.72;6.22;;;33.60;94.70;;;;;;5022314;28;20187;-65
2021/06/26 12:34:07;;;;;;;10.38;6.95;;;34.00;96.70;;;;;;5031452;28;20565;-66